Time;durP1;ratioP1;P1;durP2;ratioP2;P2;SDS_P1;SDS_P2;PMS_P1;PMS_P2;Temp;Humidity;BMP_temperature;BMP_pressure;BME280_temperature;BME280_humidity;BME280_pressure;Samples;Min_cycle;Max_cycle;Signal;HPM_P1;HPM_P2
2023/01/09 00:01:46;;;;;;;7.17;2.17;;;7.20;99.90;;;;;;5056404;28;20615;-87
2023/01/09 00:04:12;;;;;;;7.00;2.00;;;7.20;99.90;;;;;;5055883;28;20786;-87
2023/01/09 00:06:42;;;;;;;7.53;2.23;;;7.20;99.90;;;;;;5039315;28;20416;-87
2023/01/09 00:09:09;;;;;;;8.40;2.10;;;7.20;99.90;;;;;;5055281;28;20311;-88
2023/01/09 00:11:35;;;;;;;6.43;2.10;;;7.20;99.90;;;;;;5055427;28;20279;-88
2023/01/09 00:14:00;;;;;;;10.27;2.50;;;7.20;99.90;;;;;;5024816;28;20369;-88
2023/01/09 00:16:26;;;;;;;7.67;2.97;;;7.20;99.90;;;;;;5042703;28;20322;-88
2023/01/09 00:18:52;;;;;;;8.20;2.07;;;7.20;99.90;;;;;;5077198;28;20059;-87
2023/01/09 00:21:18;;;;;;;6.93;2.43;;;7.20;99.90;;;;;;5059469;28;20101;-88
2023/01/09 00:23:44;;;;;;;7.37;2.10;;;7.20;99.90;;;;;;5059340;28;20052;-88
2023/01/09 00:26:11;;;;;;;6.40;2.20;;;7.20;99.90;;;;;;5059368;28;20301;-88
2023/01/09 00:28:37;;;;;;;6.93;2.40;;;7.20;99.90;;;;;;5042512;28;20298;-88
2023/01/09 00:31:05;;;;;;;8.43;1.90;;;7.20;99.90;;;;;;5042513;28;20806;-88
2023/01/09 00:33:37;;;;;;;6.60;1.90;;;7.20;99.90;;;;;;5059048;28;20283;-88
2023/01/09 00:36:04;;;;;;;5.70;1.87;;;7.20;99.90;;;;;;5059063;28;20778;-88
2023/01/09 00:38:30;;;;;;;5.20;1.60;;;7.20;99.90;;;;;;5042313;28;20295;-88
2023/01/09 00:40:56;;;;;;;5.77;1.73;;;7.20;99.90;;;;;;5058750;28;20286;-88
2023/01/09 00:43:26;;;;;;;6.13;2.00;;;7.20;99.90;;;;;;5058953;28;20542;-88
2023/01/09 00:45:51;;;;;;;5.27;1.80;;;7.20;99.90;;;;;;5042282;28;20330;-87
2023/01/09 00:48:25;;;;;;;5.17;1.80;;;7.20;99.90;;;;;;5059747;28;20375;-89
2023/01/09 00:50:56;;;;;;;6.23;2.03;;;7.20;99.90;;;;;;5059402;28;20071;-89
2023/01/09 00:53:25;;;;;;;5.23;1.70;;;7.20;99.90;;;;;;5076650;28;20286;-88
2023/01/09 00:55:51;;;;;;;5.50;1.90;;;7.20;99.90;;;;;;5042805;28;20287;-88
2023/01/09 00:58:17;;;;;;;8.00;2.10;;;7.30;99.90;;;;;;5025748;28;20373;-87
2023/01/09 01:00:43;;;;;;;6.23;1.90;;;7.20;99.90;;;;;;5058726;28;20333;-88
2023/01/09 01:03:09;;;;;;;5.83;1.73;;;7.20;99.90;;;;;;5076256;28;20707;-89
2023/01/09 01:08:19;;;;;;;5.83;1.97;;;7.30;99.90;;;;;;5058504;28;20096;-87
2023/01/09 01:10:46;;;;;;;5.43;1.87;;;7.30;99.90;;;;;;5076709;28;20713;-88
2023/01/09 01:13:12;;;;;;;6.53;2.07;;;7.30;99.90;;;;;;5076145;28;20682;-88
2023/01/09 01:15:39;;;;;;;6.73;2.00;;;7.30;99.90;;;;;;5058823;28;20326;-88
2023/01/09 01:18:05;;;;;;;8.43;2.13;;;7.30;99.90;;;;;;5058625;28;20785;-88
2023/01/09 01:20:32;;;;;;;8.70;2.50;;;7.30;99.90;;;;;;5075892;28;20770;-88
2023/01/09 01:22:57;;;;;;;11.40;2.50;;;7.20;99.90;;;;;;5058087;28;20287;-88
2023/01/09 01:25:23;;;;;;;8.40;2.83;;;7.20;99.90;;;;;;5058430;28;20340;-88
2023/01/09 01:27:49;;;;;;;8.07;2.60;;;7.30;99.90;;;;;;5058426;28;20181;-88
2023/01/09 01:30:17;;;;;;;6.80;2.10;;;7.30;99.90;;;;;;5057974;28;20365;-88
2023/01/09 01:32:43;;;;;;;8.20;2.57;;;7.30;99.90;;;;;;5041304;28;20094;-88
2023/01/09 01:35:09;;;;;;;8.53;2.20;;;7.30;99.90;;;;;;5058895;28;20293;-88
2023/01/09 01:37:36;;;;;;;11.67;2.47;;;7.20;99.90;;;;;;5058203;28;20286;-88
2023/01/09 01:40:04;;;;;;;7.17;2.30;;;7.20;99.90;;;;;;5041887;28;20366;-88
2023/01/09 01:42:30;;;;;;;11.07;2.43;;;7.20;99.90;;;;;;5044497;28;20376;-89
2023/01/09 01:45:00;;;;;;;5.60;1.90;;;7.20;99.90;;;;;;5057840;28;20297;-88
2023/01/09 01:48:05;;;;;;;8.90;2.50;;;7.20;99.90;;;;;;5041156;28;20294;-87
2023/01/09 01:50:54;;;;;;;9.77;2.77;;;7.10;99.90;;;;;;5040896;28;20295;-88
2023/01/09 01:53:26;;;;;;;9.80;2.50;;;7.10;99.90;;;;;;5074220;28;20791;-87
2023/01/09 01:55:55;;;;;;;8.20;2.30;;;7.10;99.90;;;;;;5041209;28;20298;-88
2023/01/09 01:58:21;;;;;;;7.20;2.33;;;7.00;99.90;;;;;;5057632;28;20287;-88
2023/01/09 02:00:47;;;;;;;9.40;2.10;;;7.00;99.90;;;;;;5057596;28;20287;-88
2023/01/09 02:03:22;;;;;;;8.93;2.30;;;7.00;99.90;;;;;;5057476;28;20045;-88
2023/01/09 02:05:48;;;;;;;6.95;2.67;;;6.90;99.90;;;;;;5075439;28;20275;-88
2023/01/09 02:08:14;;;;;;;8.13;2.30;;;6.90;99.90;;;;;;5074881;28;20057;-87
2023/01/09 02:10:40;;;;;;;8.23;2.10;;;6.90;99.90;;;;;;5057415;28;20056;-88
2023/01/09 02:13:08;;;;;;;5.90;1.80;;;6.90;99.90;;;;;;5058182;28;20053;-87
2023/01/09 02:15:55;;;;;;;9.10;3.13;;;6.90;99.90;;;;;;5074905;28;20283;-87
2023/01/09 02:18:23;;;;;;;11.37;2.27;;;6.80;99.90;;;;;;5075784;28;20275;-87
2023/01/09 02:21:00;;;;;;;7.30;2.33;;;6.80;99.90;;;;;;5074973;28;20283;-87
2023/01/09 02:23:47;;;;;;;9.20;2.43;;;6.80;99.90;;;;;;5075345;28;20333;-86
2023/01/09 02:26:30;;;;;;;9.10;2.33;;;6.70;99.90;;;;;;5056882;28;20295;-87
2023/01/09 02:29:29;;;;;;;10.20;2.70;;;6.70;99.90;;;;;;5040610;28;20326;-87
2023/01/09 02:32:13;;;;;;;8.60;2.10;;;6.70;99.90;;;;;;5057449;28;20767;-87
2023/01/09 02:34:54;;;;;;;8.33;2.20;;;6.60;99.90;;;;;;5040473;28;20294;-87
2023/01/09 02:37:23;;;;;;;7.37;2.20;;;6.60;99.90;;;;;;5056401;28;20293;-87
2023/01/09 02:40:17;;;;;;;10.57;2.20;;;6.60;99.90;;;;;;5074712;28;20279;-88
2023/01/09 02:42:46;;;;;;;7.23;2.23;;;6.60;99.90;;;;;;5057513;28;20413;-88
2023/01/09 02:45:12;;;;;;;8.23;2.80;;;6.60;99.90;;;;;;5074238;28;20370;-87
2023/01/09 02:47:42;;;;;;;7.70;2.80;;;6.50;99.90;;;;;;5056821;28;20369;-88
2023/01/09 02:50:22;;;;;;;12.63;2.53;;;6.50;99.90;;;;;;5039900;28;20048;-87
2023/01/09 02:53:00;;;;;;;10.27;2.63;;;6.60;99.90;;;;;;5039795;28;20318;-87
2023/01/09 02:55:47;;;;;;;7.63;2.23;;;6.60;99.90;;;;;;5056639;28;20338;-87
2023/01/09 02:58:22;;;;;;;10.70;2.37;;;6.60;99.90;;;;;;5040247;28;20305;-87
2023/01/09 03:01:12;;;;;;;10.18;2.20;;;6.50;99.90;;;;;;5056451;28;20297;-87
2023/01/09 03:03:50;;;;;;;17.25;2.95;;;6.50;99.90;;;;;;5056260;28;20044;-87
2023/01/09 03:06:18;;;;;;;8.97;2.10;;;6.50;99.90;;;;;;5074855;28;20118;-87
2023/01/09 03:08:52;;;;;;;12.07;2.80;;;6.40;99.90;;;;;;5073655;28;20303;-87
2023/01/09 03:11:20;;;;;;;8.30;2.00;;;6.40;99.90;;;;;;5056421;28;20844;-87
2023/01/09 03:13:49;;;;;;;4.85;2.13;;;6.30;99.90;;;;;;5074515;28;20293;-86
2023/01/09 03:16:20;;;;;;;9.40;2.53;;;6.30;99.90;;;;;;5056240;28;20048;-87
2023/01/09 03:18:49;;;;;;;8.40;2.88;;;6.30;99.90;;;;;;5039798;28;20318;-86
2023/01/09 03:21:16;;;;;;;8.37;2.50;;;6.30;99.90;;;;;;5073720;28;20051;-86
2023/01/09 03:23:50;;;;;;;9.23;2.60;;;6.30;99.90;;;;;;5056239;28;20287;-86
2023/01/09 03:26:17;;;;;;;10.18;2.65;;;6.30;99.90;;;;;;5055997;28;20291;-86
2023/01/09 03:28:43;;;;;;;6.47;2.45;;;6.20;99.90;;;;;;5055912;28;20614;-86
2023/01/09 03:31:09;;;;;;;11.60;2.50;;;6.20;99.90;;;;;;5056258;28;20052;-87
2023/01/09 03:33:35;;;;;;;9.07;2.80;;;6.20;99.90;;;;;;5073652;28;20392;-86
2023/01/09 03:36:01;;;;;;;8.93;2.47;;;6.20;99.90;;;;;;5055682;28;20078;-87
2023/01/09 03:38:26;;;;;;;11.07;3.03;;;6.20;99.90;;;;;;5055866;28;20372;-87
2023/01/09 03:40:52;;;;;;;8.57;2.60;;;6.10;99.90;;;;;;5073288;28;20040;-88
2023/01/09 03:43:18;;;;;;;11.73;3.47;;;6.10;99.90;;;;;;5055879;28;20127;-87
2023/01/09 03:45:43;;;;;;;11.33;3.40;;;6.10;99.90;;;;;;5055738;28;20400;-88
2023/01/09 03:48:09;;;;;;;9.43;2.87;;;6.00;99.90;;;;;;5055082;28;20131;-88
2023/01/09 03:50:35;;;;;;;15.03;3.60;;;6.00;99.90;;;;;;5059353;28;20043;-85
2023/01/09 03:53:00;;;;;;;10.10;3.20;;;6.10;99.90;;;;;;5040067;28;20539;-88
2023/01/09 03:55:26;;;;;;;9.13;3.20;;;6.10;99.90;;;;;;5074013;28;20055;-88
2023/01/09 03:57:52;;;;;;;11.13;3.50;;;6.00;99.90;;;;;;5073314;28;20048;-88
2023/01/09 04:00:21;;;;;;;11.37;3.47;;;6.00;99.90;;;;;;5055709;28;20135;-88
2023/01/09 04:02:47;;;;;;;9.20;3.40;;;6.00;99.90;;;;;;5073611;28;20048;-88
2023/01/09 04:05:12;;;;;;;10.57;3.27;;;6.00;99.90;;;;;;5055703;28;20157;-87
2023/01/09 04:07:38;;;;;;;9.73;3.30;;;6.00;99.90;;;;;;5073371;28;20060;-87
2023/01/09 04:10:05;;;;;;;13.90;3.93;;;6.00;99.90;;;;;;5072679;28;20056;-87
2023/01/09 04:12:30;;;;;;;12.73;3.58;;;6.00;99.90;;;;;;5039039;28;20049;-87
2023/01/09 04:14:56;;;;;;;9.53;3.53;;;5.90;99.90;;;;;;5073198;28;20102;-87
2023/01/09 04:17:22;;;;;;;12.47;3.90;;;5.90;99.90;;;;;;5073126;28;20065;-87
2023/01/09 04:19:48;;;;;;;8.70;3.50;;;6.00;99.90;;;;;;5039233;28;20139;-87
2023/01/09 04:22:13;;;;;;;12.33;3.80;;;6.00;99.90;;;;;;5055370;28;20048;-87
2023/01/09 04:24:39;;;;;;;9.83;3.40;;;6.00;99.90;;;;;;5056310;28;20045;-87
2023/01/09 04:27:05;;;;;;;13.23;4.10;;;6.00;99.90;;;;;;5073111;28;20055;-87
2023/01/09 04:29:30;;;;;;;8.00;3.90;;;6.00;99.90;;;;;;5038716;28;20055;-87
2023/01/09 04:31:56;;;;;;;12.57;3.63;;;6.00;99.90;;;;;;5073873;28;20044;-88
2023/01/09 04:34:24;;;;;;;12.97;4.43;;;6.00;99.90;;;;;;5055454;28;20510;-87
2023/01/09 04:36:51;;;;;;;10.97;4.73;;;6.10;99.90;;;;;;5055655;28;20050;-88
2023/01/09 04:39:17;;;;;;;10.77;4.00;;;6.10;99.90;;;;;;5072992;28;20743;-89
2023/01/09 04:41:48;;;;;;;12.30;4.20;;;6.00;99.90;;;;;;5073029;28;20393;-87
2023/01/09 04:44:18;;;;;;;11.18;4.20;;;6.00;99.90;;;;;;5073599;28;20074;-88
2023/01/09 04:46:44;;;;;;;10.47;4.37;;;6.00;99.90;;;;;;5055311;28;20067;-88
2023/01/09 04:49:10;;;;;;;9.17;4.67;;;6.00;99.90;;;;;;5054841;28;20310;-89
2023/01/09 04:51:35;;;;;;;9.83;5.30;;;5.90;99.90;;;;;;5073381;28;20091;-88
2023/01/09 04:54:01;;;;;;;10.27;4.10;;;5.90;99.90;;;;;;5055188;28;20084;-89
2023/01/09 04:56:27;;;;;;;17.17;6.97;;;6.00;99.90;;;;;;5055190;28;20044;-89
2023/01/09 04:58:53;;;;;;;10.83;4.67;;;5.90;99.90;;;;;;5040396;28;20488;-88
2023/01/09 05:01:18;;;;;;;12.00;5.07;;;5.90;99.90;;;;;;5059065;28;20055;-88
2023/01/09 05:03:44;;;;;;;10.73;4.70;;;5.90;99.90;;;;;;5076329;28;20439;-87
2023/01/09 05:06:10;;;;;;;9.47;4.73;;;5.90;99.90;;;;;;5076885;28;20169;-88
2023/01/09 05:08:36;;;;;;;12.77;5.45;;;5.80;99.90;;;;;;5058500;28;20048;-88
2023/01/09 05:11:01;;;;;;;14.40;5.70;;;5.80;99.90;;;;;;5078006;28;20431;-88
2023/01/09 05:13:27;;;;;;;12.50;5.50;;;5.80;99.90;;;;;;5060185;28;20498;-88
2023/01/09 05:15:53;;;;;;;15.07;5.87;;;5.80;99.90;;;;;;5076566;28;20056;-88
2023/01/09 05:18:18;;;;;;;11.87;4.90;;;5.80;99.90;;;;;;5076685;28;20186;-88
2023/01/09 05:20:44;;;;;;;13.17;6.00;;;5.80;99.90;;;;;;5042589;28;20044;-86
2023/01/09 05:23:10;;;;;;;13.53;5.60;;;5.70;99.90;;;;;;5058316;28;20080;-88
2023/01/09 05:25:36;;;;;;;13.93;6.33;;;5.80;99.90;;;;;;5058219;28;20055;-87
2023/01/09 05:28:01;;;;;;;14.85;7.47;;;5.70;99.90;;;;;;5075755;28;20570;-88
2023/01/09 05:30:27;;;;;;;12.53;7.10;;;5.70;99.90;;;;;;5058735;28;20088;-88
2023/01/09 05:32:53;;;;;;;14.90;8.13;;;5.70;99.90;;;;;;5058833;28;20071;-87
2023/01/09 05:35:19;;;;;;;13.37;7.30;;;5.70;99.90;;;;;;5075793;28;20070;-88
2023/01/09 05:37:46;;;;;;;16.37;8.07;;;5.70;99.90;;;;;;5075663;28;20049;-85
2023/01/09 05:40:12;;;;;;;15.38;9.38;;;5.70;99.90;;;;;;5057984;28;20048;-88
2023/01/09 05:42:37;;;;;;;14.33;8.73;;;5.70;99.90;;;;;;5075711;28;20504;-89
2023/01/09 05:45:04;;;;;;;15.00;9.23;;;5.60;99.90;;;;;;5041313;28;20063;-88
2023/01/09 05:47:30;;;;;;;18.45;10.27;;;5.60;99.90;;;;;;5057484;28;20045;-89
2023/01/09 05:49:56;;;;;;;22.27;11.20;;;5.60;99.90;;;;;;5076128;28;20044;-88
2023/01/09 05:52:23;;;;;;;21.50;11.37;;;5.60;99.90;;;;;;5075498;28;20560;-89
2023/01/09 05:54:48;;;;;;;18.50;10.77;;;5.60;99.90;;;;;;5057917;28;20048;-87
2023/01/09 05:57:14;;;;;;;21.60;12.00;;;5.70;99.90;;;;;;5075386;28;20542;-88
2023/01/09 05:59:40;;;;;;;18.73;10.97;;;5.70;99.90;;;;;;5075391;28;20048;-88
2023/01/09 06:02:06;;;;;;;16.63;12.03;;;5.70;99.90;;;;;;5058986;28;20091;-88
2023/01/09 06:04:31;;;;;;;22.27;12.70;;;5.80;99.90;;;;;;5057528;28;20067;-88
2023/01/09 06:06:57;;;;;;;18.37;12.47;;;5.80;99.90;;;;;;5057673;28;20159;-88
2023/01/09 06:09:23;;;;;;;16.93;11.87;;;5.80;99.90;;;;;;5053477;28;20140;-88
2023/01/09 06:11:49;;;;;;;19.63;13.15;;;5.80;99.90;;;;;;5054338;28;20552;-84
2023/01/09 06:14:15;;;;;;;19.93;12.07;;;5.80;99.90;;;;;;5053698;28;20130;-87
2023/01/09 06:16:40;;;;;;;21.90;13.37;;;5.80;99.90;;;;;;5055026;28;20041;-88
2023/01/09 06:19:06;;;;;;;17.00;12.73;;;5.70;99.90;;;;;;5053500;28;20095;-88
2023/01/09 06:21:32;;;;;;;17.73;12.87;;;5.80;99.90;;;;;;5054679;28;20057;-89
2023/01/09 06:23:58;;;;;;;18.40;12.85;;;5.80;99.90;;;;;;5054812;28;20146;-83
2023/01/09 06:26:25;;;;;;;19.83;12.43;;;5.80;99.90;;;;;;5053536;28;20055;-85
2023/01/09 06:28:54;;;;;;;21.23;12.88;;;5.80;99.90;;;;;;5053649;28;20037;-86
2023/01/09 06:31:21;;;;;;;18.88;12.85;;;5.80;99.90;;;;;;5037052;28;20076;-82
2023/01/09 06:33:46;;;;;;;17.88;12.77;;;5.70;99.90;;;;;;5037183;28;20128;-79
2023/01/09 06:36:12;;;;;;;20.00;13.33;;;5.70;99.90;;;;;;5037711;28;20091;-80
2023/01/09 06:38:38;;;;;;;20.40;12.60;;;5.80;99.90;;;;;;5053777;28;20370;-79
2023/01/09 06:41:04;;;;;;;17.63;12.47;;;5.80;99.90;;;;;;5054440;28;20064;-81
2023/01/09 06:43:30;;;;;;;21.50;12.70;;;5.80;99.90;;;;;;5054235;28;20461;-80
2023/01/09 06:45:56;;;;;;;19.53;11.90;;;5.80;99.90;;;;;;5053395;28;20366;-83
2023/01/09 06:48:23;;;;;;;19.15;13.00;;;5.80;99.90;;;;;;5054312;28;20349;-84
2023/01/09 06:50:50;;;;;;;19.48;13.23;;;5.80;99.90;;;;;;5036283;28;20566;-79
2023/01/09 06:53:16;;;;;;;17.73;12.75;;;5.90;99.90;;;;;;5036607;28;20049;-80
2023/01/09 06:55:42;;;;;;;19.47;12.33;;;5.90;99.90;;;;;;5053095;28;20049;-80
2023/01/09 06:58:08;;;;;;;20.38;13.02;;;5.90;99.90;;;;;;5053427;28;20049;-80
2023/01/09 07:00:34;;;;;;;16.10;11.20;;;5.80;99.90;;;;;;5053864;28;20068;-80
2023/01/09 07:03:00;;;;;;;18.88;11.82;;;5.90;99.90;;;;;;5054789;28;20045;-80
2023/01/09 07:05:26;;;;;;;18.57;11.83;;;5.90;99.90;;;;;;5036464;28;20493;-80
2023/01/09 07:07:52;;;;;;;21.93;10.87;;;5.90;99.90;;;;;;5054263;28;20049;-80
2023/01/09 07:10:18;;;;;;;18.03;12.50;;;5.80;99.90;;;;;;5056347;28;20056;-80
2023/01/09 07:12:43;;;;;;;17.10;11.10;;;5.80;99.90;;;;;;5039655;28;20052;-80
2023/01/09 07:15:09;;;;;;;19.50;11.63;;;5.80;99.90;;;;;;5055999;28;20097;-80
2023/01/09 07:17:35;;;;;;;17.65;11.35;;;5.80;99.90;;;;;;5056141;28;20044;-79
2023/01/09 07:20:01;;;;;;;15.53;9.80;;;5.80;99.90;;;;;;5073685;28;20127;-80
2023/01/09 07:22:27;;;;;;;14.60;10.70;;;5.70;99.90;;;;;;5056630;28;20067;-80
2023/01/09 07:24:52;;;;;;;14.87;9.53;;;5.70;99.90;;;;;;5039495;28;20485;-80
2023/01/09 07:27:18;;;;;;;17.97;11.03;;;5.70;99.90;;;;;;5056304;28;20048;-80
2023/01/09 07:29:44;;;;;;;18.33;10.13;;;5.80;99.90;;;;;;5055659;28;20417;-80
2023/01/09 07:32:09;;;;;;;14.77;10.30;;;5.80;99.90;;;;;;5074061;28;20121;-80
2023/01/09 07:34:35;;;;;;;18.60;10.13;;;5.80;99.90;;;;;;5074106;28;20370;-79
2023/01/09 07:37:01;;;;;;;13.57;8.90;;;5.80;99.90;;;;;;5039185;28;20388;-80
2023/01/09 07:39:27;;;;;;;20.93;10.33;;;5.80;99.90;;;;;;5056234;28;20037;-80
2023/01/09 07:41:52;;;;;;;15.23;8.93;;;5.80;99.90;;;;;;5074051;28;20052;-80
2023/01/09 07:44:19;;;;;;;15.77;8.93;;;5.90;99.90;;;;;;5055676;28;20102;-80
2023/01/09 07:46:44;;;;;;;15.35;9.05;;;5.80;99.90;;;;;;5055661;28;20481;-80
2023/01/09 07:49:10;;;;;;;14.23;8.10;;;5.70;99.90;;;;;;5055494;28;20049;-82
2023/01/09 07:51:41;;;;;;;15.03;9.03;;;5.80;99.90;;;;;;5055459;28;20055;-80
2023/01/09 07:54:11;;;;;;;15.25;8.82;;;5.80;99.90;;;;;;5056514;28;20170;-81
2023/01/09 07:56:38;;;;;;;15.75;8.40;;;5.80;99.90;;;;;;5039289;28;20044;-80
2023/01/09 07:59:03;;;;;;;15.38;8.63;;;5.80;99.90;;;;;;5039007;28;20056;-81
2023/01/09 08:01:29;;;;;;;16.37;8.83;;;5.90;99.90;;;;;;5055401;28;20057;-80
2023/01/09 08:03:55;;;;;;;17.47;8.37;;;5.90;99.90;;;;;;5073204;28;20056;-80
2023/01/09 08:06:21;;;;;;;12.33;8.50;;;5.90;99.90;;;;;;5055490;28;20088;-80
2023/01/09 08:08:46;;;;;;;11.37;7.53;;;5.90;99.90;;;;;;5072934;28;20052;-80
2023/01/09 08:11:12;;;;;;;14.23;7.77;;;5.90;99.90;;;;;;5073124;28;20048;-80
2023/01/09 08:13:38;;;;;;;15.70;7.40;;;5.90;99.90;;;;;;5055598;28;20048;-81
2023/01/09 08:16:04;;;;;;;18.40;8.80;;;6.00;99.90;;;;;;5038454;28;20149;-81
2023/01/09 08:18:30;;;;;;;13.90;8.10;;;6.00;99.90;;;;;;5055505;28;20051;-80
2023/01/09 08:20:55;;;;;;;12.93;7.87;;;6.00;99.90;;;;;;5073142;28;20043;-80
2023/01/09 08:23:21;;;;;;;13.47;7.50;;;6.00;99.90;;;;;;5055405;28;20446;-80
2023/01/09 08:25:47;;;;;;;13.40;7.53;;;6.00;99.90;;;;;;5038498;28;20511;-80
2023/01/09 08:28:12;;;;;;;14.43;7.50;;;6.00;99.90;;;;;;5039288;28;20102;-80
2023/01/09 08:30:38;;;;;;;12.67;7.23;;;6.10;99.90;;;;;;5073012;28;20075;-80
2023/01/09 08:33:04;;;;;;;13.90;7.38;;;6.10;99.90;;;;;;5055480;28;20473;-81
2023/01/09 08:35:30;;;;;;;11.93;7.23;;;6.10;99.90;;;;;;5058187;28;20044;-80
2023/01/09 08:37:56;;;;;;;14.00;7.50;;;6.10;99.90;;;;;;5059614;28;20076;-80
2023/01/09 08:40:21;;;;;;;12.67;7.27;;;6.10;99.90;;;;;;5058999;28;20484;-80
2023/01/09 08:48:16;;;;;;;15.82;7.70;;;6.10;99.90;;;;;;5076615;28;20071;-80
2023/01/09 08:50:42;;;;;;;10.57;7.60;;;6.10;99.90;;;;;;5058592;28;20045;-80
2023/01/09 08:53:09;;;;;;;11.43;7.40;;;6.20;99.90;;;;;;5058778;28;20139;-80
2023/01/09 08:55:34;;;;;;;12.10;7.30;;;6.20;99.90;;;;;;5042100;28;20131;-80
2023/01/09 08:58:01;;;;;;;10.93;6.97;;;6.20;99.90;;;;;;5059277;28;20355;-80
2023/01/09 09:00:26;;;;;;;14.02;7.53;;;6.30;99.90;;;;;;5076271;28;20083;-80
2023/01/09 09:02:54;;;;;;;12.63;7.90;;;6.30;99.90;;;;;;5076242;28;20084;-80
2023/01/09 09:05:21;;;;;;;16.00;7.40;;;6.20;99.90;;;;;;5058498;28;20055;-80
2023/01/09 09:07:48;;;;;;;13.43;7.00;;;6.30;99.90;;;;;;5058589;28;20056;-80
2023/01/09 09:10:18;;;;;;;14.82;6.47;;;6.30;99.90;;;;;;5076608;28;20083;-80
2023/01/09 09:12:47;;;;;;;10.23;6.82;;;6.30;99.90;;;;;;5076373;28;20044;-80
2023/01/09 09:15:15;;;;;;;13.68;6.65;;;6.40;99.90;;;;;;5076057;28;20044;-80
2023/01/09 09:17:42;;;;;;;14.50;6.85;;;6.40;99.90;;;;;;5058486;28;20049;-80
2023/01/09 09:20:09;;;;;;;11.02;6.72;;;6.40;99.90;;;;;;5058264;28;20048;-81
2023/01/09 09:22:35;;;;;;;9.33;5.87;;;6.50;99.90;;;;;;5058215;28;20055;-80
2023/01/09 09:25:03;;;;;;;13.30;6.57;;;6.50;99.90;;;;;;5058222;28;20630;-80
2023/01/09 09:27:32;;;;;;;11.93;5.70;;;6.50;99.90;;;;;;5058036;28;20142;-80
2023/01/09 09:29:58;;;;;;;12.80;5.97;;;6.50;99.90;;;;;;5041764;28;20101;-80
2023/01/09 09:32:24;;;;;;;10.95;6.40;;;6.60;99.90;;;;;;5042278;28;20076;-80
2023/01/09 09:34:50;;;;;;;11.77;5.97;;;6.50;99.90;;;;;;5058084;28;20110;-80
2023/01/09 09:37:15;;;;;;;13.20;6.20;;;6.60;99.90;;;;;;5057773;28;20044;-80
2023/01/09 09:39:41;;;;;;;13.40;5.70;;;6.60;99.90;;;;;;5058650;28;20056;-80
2023/01/09 09:45:35;;;;;;;10.55;6.82;;;6.70;99.90;;;;;;5057297;28;20056;-80
2023/01/09 09:48:19;;;;;;;11.48;5.65;;;6.70;99.90;;;;;;5058322;28;20044;-80
2023/01/09 09:51:00;;;;;;;10.23;4.73;;;6.70;99.90;;;;;;5075921;28;20040;-80
2023/01/09 09:53:42;;;;;;;10.13;5.03;;;6.70;99.90;;;;;;5058476;28;20283;-80
2023/01/09 09:56:12;;;;;;;8.93;5.23;;;6.80;99.90;;;;;;5057899;28;20366;-80
2023/01/09 09:58:38;;;;;;;13.93;5.07;;;6.80;99.90;;;;;;5057906;28;20639;-80
2023/01/09 10:01:05;;;;;;;12.93;5.60;;;6.80;99.90;;;;;;5058347;28;20295;-80
2023/01/09 10:03:40;;;;;;;10.83;5.20;;;6.80;99.90;;;;;;5057522;28;20097;-79
2023/01/09 10:06:29;;;;;;;11.57;5.60;;;6.90;99.90;;;;;;5057781;28;20295;-79
2023/01/09 10:08:55;;;;;;;12.53;4.93;;;6.90;99.90;;;;;;5057126;28;20135;-80
2023/01/09 10:11:29;;;;;;;8.90;5.33;;;6.90;99.90;;;;;;5057014;28;20782;-79
2023/01/09 10:14:04;;;;;;;13.27;4.90;;;7.00;99.90;;;;;;5057350;28;20340;-80
2023/01/09 10:16:49;;;;;;;8.88;4.22;;;6.90;99.90;;;;;;5075536;28;20271;-80
2023/01/09 10:19:18;;;;;;;13.15;5.25;;;7.00;99.90;;;;;;5057286;28;20044;-80
2023/01/09 10:21:53;;;;;;;11.90;5.00;;;7.00;99.90;;;;;;5075158;28;20193;-79
2023/01/09 10:24:25;;;;;;;;;;;7.00;99.90;;;;;;5058030;28;20348;-79
2023/01/09 10:26:52;;;;;;;11.00;4.93;;;7.00;99.90;;;;;;5057277;28;19921;-79
2023/01/09 10:29:24;;;;;;;9.50;4.77;;;7.10;99.90;;;;;;5074812;28;20286;-79
2023/01/09 10:32:12;;;;;;;14.43;5.17;;;7.10;99.90;;;;;;5040733;28;20291;-79
2023/01/09 10:35:15;;;;;;;11.07;4.50;;;7.10;99.90;;;;;;5057522;28;20294;-79
2023/01/09 10:37:44;;;;;;;12.93;5.93;;;7.10;99.90;;;;;;5057872;28;20283;-79
2023/01/09 10:40:20;;;;;;;8.23;4.93;;;7.10;99.90;;;;;;5056852;28;20782;-79
2023/01/09 10:42:55;;;;;;;13.03;6.57;;;7.10;99.90;;;;;;5074508;28;20306;-80
2023/01/09 10:45:33;;;;;;;10.43;5.25;;;7.10;99.90;;;;;;5075202;28;20286;-80
2023/01/09 10:48:05;;;;;;;11.17;4.70;;;7.10;99.90;;;;;;5075104;28;20052;-79
2023/01/09 10:50:36;;;;;;;9.67;5.27;;;7.10;99.90;;;;;;5056421;28;20307;-79
2023/01/09 10:53:14;;;;;;;13.87;5.70;;;7.10;99.90;;;;;;5056824;28;20287;-79
2023/01/09 10:55:43;;;;;;;13.20;5.03;;;7.10;99.90;;;;;;5074720;28;20270;-79
2023/01/09 10:58:18;;;;;;;12.67;5.03;;;7.10;99.90;;;;;;5055983;28;20283;-79
2023/01/09 11:00:44;;;;;;;11.37;5.37;;;7.10;99.90;;;;;;5074074;28;20329;-79
2023/01/09 11:03:16;;;;;;;10.70;5.30;;;7.10;99.90;;;;;;5040256;28;20309;-79
2023/01/09 11:05:43;;;;;;;9.70;5.30;;;7.10;99.90;;;;;;5056343;28;20347;-80
2023/01/09 11:08:10;;;;;;;10.30;5.20;;;7.10;99.90;;;;;;5056561;28;20374;-79
2023/01/09 11:10:54;;;;;;;13.63;5.40;;;7.10;99.90;;;;;;5073795;28;20302;-79
2023/01/09 11:13:20;;;;;;;10.70;5.40;;;7.10;99.90;;;;;;5056440;28;20295;-80
2023/01/09 11:15:57;;;;;;;10.23;5.13;;;7.10;99.90;;;;;;5039544;28;20377;-79
2023/01/09 11:18:24;;;;;;;10.53;5.80;;;7.10;99.90;;;;;;5073763;28;20312;-80
2023/01/09 11:20:50;;;;;;;13.77;5.70;;;7.10;99.90;;;;;;5039335;28;20663;-80
2023/01/09 11:23:26;;;;;;;14.53;6.70;;;7.10;99.90;;;;;;5039423;28;20283;-80
2023/01/09 11:25:54;;;;;;;13.10;6.18;;;7.10;99.90;;;;;;5056305;28;20644;-79
2023/01/09 11:28:19;;;;;;;14.73;6.57;;;7.10;99.90;;;;;;5056032;28;20045;-80
2023/01/09 11:31:00;;;;;;;12.40;6.37;;;7.10;99.90;;;;;;5056470;28;20363;-79
2023/01/09 11:33:46;;;;;;;12.23;6.30;;;7.20;99.90;;;;;;5040185;28;20059;-80
2023/01/09 11:36:14;;;;;;;13.27;6.77;;;7.20;99.90;;;;;;5039534;28;20287;-80
2023/01/09 11:38:46;;;;;;;14.20;6.70;;;7.20;99.90;;;;;;5055807;28;20286;-80
2023/01/09 11:41:18;;;;;;;12.60;7.63;;;7.20;99.90;;;;;;5039999;28;20704;-80
2023/01/09 11:43:46;;;;;;;13.73;7.50;;;7.20;99.90;;;;;;5074071;28;20314;-80
2023/01/09 11:46:39;;;;;;;16.17;7.43;;;7.20;99.90;;;;;;5055710;28;20329;-79
2023/01/09 11:49:21;;;;;;;12.73;7.43;;;7.20;99.90;;;;;;5055479;28;20291;-80
2023/01/09 11:52:04;;;;;;;11.30;7.20;;;7.20;99.90;;;;;;5039403;28;20291;-80
2023/01/09 11:54:33;;;;;;;16.10;6.90;;;7.20;99.90;;;;;;5073918;28;20283;-80
2023/01/09 11:56:59;;;;;;;12.63;7.63;;;7.20;99.90;;;;;;5055629;28;20343;-79
2023/01/09 11:59:27;;;;;;;14.30;7.47;;;7.20;99.90;;;;;;5055955;28;20282;-80
2023/01/09 12:02:00;;;;;;;12.27;7.53;;;7.20;99.90;;;;;;5055644;28;20306;-80
2023/01/09 12:04:41;;;;;;;15.20;8.43;;;7.20;99.90;;;;;;5073225;28;20293;-80
2023/01/09 12:07:34;;;;;;;13.43;8.50;;;7.20;99.90;;;;;;5056186;28;20313;-80
2023/01/09 12:10:29;;;;;;;13.50;7.90;;;7.30;99.90;;;;;;5056828;28;20640;-80
2023/01/09 12:13:17;;;;;;;12.63;7.70;;;7.30;99.90;;;;;;5043632;28;20290;-79
2023/01/09 12:16:20;;;;;;;14.10;7.93;;;7.30;99.90;;;;;;5077216;28;20315;-80
2023/01/09 12:18:59;;;;;;;13.43;7.57;;;7.40;99.90;;;;;;5042791;28;20698;-80
2023/01/09 12:21:49;;;;;;;15.43;7.90;;;7.40;99.90;;;;;;5077184;28;20278;-80
2023/01/09 12:24:33;;;;;;;13.50;8.10;;;7.40;99.90;;;;;;5059387;28;20347;-80
2023/01/09 12:27:28;;;;;;;15.27;8.53;;;7.40;99.90;;;;;;5077520;28;20282;-80
2023/01/09 12:30:02;;;;;;;13.33;8.27;;;7.40;99.90;;;;;;5059147;28;20302;-80
2023/01/09 12:32:56;;;;;;;12.13;8.07;;;7.50;99.90;;;;;;5042864;28;20287;-80
2023/01/09 12:35:53;;;;;;;13.93;8.20;;;7.50;99.90;;;;;;5058909;28;20282;-79
2023/01/09 12:38:30;;;;;;;16.23;9.23;;;7.50;99.90;;;;;;5058861;28;20361;-80
2023/01/09 12:41:23;;;;;;;12.70;8.70;;;7.50;99.90;;;;;;5043074;28;20348;-80
2023/01/09 12:44:12;;;;;;;15.43;9.97;;;7.60;99.90;;;;;;5059312;28;20295;-79
2023/01/09 12:47:21;;;;;;;16.53;10.30;;;7.60;99.90;;;;;;5059224;28;20297;-80
2023/01/09 12:50:00;;;;;;;14.23;9.13;;;7.70;99.90;;;;;;5059087;28;20314;-80
2023/01/09 12:52:35;;;;;;;18.07;9.27;;;7.70;99.90;;;;;;5059321;28;20287;-79
2023/01/09 12:55:22;;;;;;;16.17;9.90;;;7.70;99.90;;;;;;5041933;28;20291;-79
2023/01/09 12:57:52;;;;;;;14.23;9.33;;;7.80;99.90;;;;;;5058682;28;20066;-80
2023/01/09 13:00:25;;;;;;;17.20;10.17;;;7.80;99.90;;;;;;5076288;28;20347;-80
2023/01/09 13:03:09;;;;;;;12.70;9.57;;;7.80;99.90;;;;;;5058903;28;20291;-80
2023/01/09 13:05:39;;;;;;;13.97;10.07;;;7.80;99.90;;;;;;5058888;28;20291;-80
2023/01/09 13:08:07;;;;;;;14.83;8.90;;;7.90;99.90;;;;;;5075865;28;20294;-80
2023/01/09 13:10:44;;;;;;;14.43;9.40;;;7.90;99.90;;;;;;5058594;28;20346;-80
2023/01/09 13:13:37;;;;;;;14.60;9.07;;;8.00;99.90;;;;;;5059301;28;20291;-80
2023/01/09 13:16:14;;;;;;;14.07;8.87;;;8.00;99.90;;;;;;5042303;28;20333;-80